sensor_id;sensor_type;location;lat;lon;timestamp;P1;durP1;ratioP1;P2;durP2;ratioP2
31760;SDS011;18335;51.486;7.562;2023-08-12T00:00:09;18.15;;;13.27;;
31760;SDS011;18335;51.486;7.562;2023-08-12T00:02:39;25.35;;;15.93;;
31760;SDS011;18335;51.486;7.562;2023-08-12T00:05:07;23.42;;;15.20;;
31760;SDS011;18335;51.486;7.562;2023-08-12T00:07:36;19.60;;;13.40;;
31760;SDS011;18335;51.486;7.562;2023-08-12T00:10:03;18.73;;;13.95;;
31760;SDS011;18335;51.486;7.562;2023-08-12T00:12:31;20.52;;;14.00;;
31760;SDS011;18335;51.486;7.562;2023-08-12T00:14:58;19.25;;;14.40;;
31760;SDS011;18335;51.486;7.562;2023-08-12T00:17:25;17.58;;;12.50;;
31760;SDS011;18335;51.486;7.562;2023-08-12T00:19:53;18.98;;;13.35;;
31760;SDS011;18335;51.486;7.562;2023-08-12T00:22:21;19.33;;;12.60;;
31760;SDS011;18335;51.486;7.562;2023-08-12T00:24:48;20.30;;;12.77;;
31760;SDS011;18335;51.486;7.562;2023-08-12T00:27:15;19.63;;;15.10;;
31760;SDS011;18335;51.486;7.562;2023-08-12T00:29:41;17.40;;;11.07;;
31760;SDS011;18335;51.486;7.562;2023-08-12T00:32:08;16.50;;;11.63;;
31760;SDS011;18335;51.486;7.562;2023-08-12T00:34:35;18.13;;;11.70;;
31760;SDS011;18335;51.486;7.562;2023-08-12T00:37:05;17.63;;;12.23;;
31760;SDS011;18335;51.486;7.562;2023-08-12T00:39:32;17.42;;;12.32;;
31760;SDS011;18335;51.486;7.562;2023-08-12T00:41:58;17.98;;;11.95;;
31760;SDS011;18335;51.486;7.562;2023-08-12T00:44:25;18.17;;;12.38;;
31760;SDS011;18335;51.486;7.562;2023-08-12T00:46:52;18.45;;;12.00;;
31760;SDS011;18335;51.486;7.562;2023-08-12T00:49:20;18.65;;;13.43;;
31760;SDS011;18335;51.486;7.562;2023-08-12T00:51:47;18.65;;;13.18;;
31760;SDS011;18335;51.486;7.562;2023-08-12T00:54:17;18.63;;;12.10;;
31760;SDS011;18335;51.486;7.562;2023-08-12T00:56:48;18.63;;;10.75;;
31760;SDS011;18335;51.486;7.562;2023-08-12T00:59:16;16.65;;;12.27;;
31760;SDS011;18335;51.486;7.562;2023-08-12T01:01:44;19.33;;;12.20;;
31760;SDS011;18335;51.486;7.562;2023-08-12T01:04:11;17.70;;;12.60;;
31760;SDS011;18335;51.486;7.562;2023-08-12T01:06:38;19.70;;;13.18;;
31760;SDS011;18335;51.486;7.562;2023-08-12T01:09:05;20.25;;;13.95;;
31760;SDS011;18335;51.486;7.562;2023-08-12T01:11:36;18.75;;;12.57;;
31760;SDS011;18335;51.486;7.562;2023-08-12T01:14:07;19.65;;;13.75;;
31760;SDS011;18335;51.486;7.562;2023-08-12T01:16:40;19.52;;;13.75;;
31760;SDS011;18335;51.486;7.562;2023-08-12T01:19:12;17.63;;;13.75;;
31760;SDS011;18335;51.486;7.562;2023-08-12T01:21:49;18.65;;;14.88;;
31760;SDS011;18335;51.486;7.562;2023-08-12T01:24:20;22.45;;;15.52;;
31760;SDS011;18335;51.486;7.562;2023-08-12T01:26:47;22.35;;;16.45;;
31760;SDS011;18335;51.486;7.562;2023-08-12T01:29:14;20.90;;;15.98;;
31760;SDS011;18335;51.486;7.562;2023-08-12T01:31:43;20.75;;;16.65;;
31760;SDS011;18335;51.486;7.562;2023-08-12T01:34:16;25.83;;;17.02;;
31760;SDS011;18335;51.486;7.562;2023-08-12T01:36:49;23.27;;;18.27;;
31760;SDS011;18335;51.486;7.562;2023-08-12T01:39:23;24.42;;;17.50;;
31760;SDS011;18335;51.486;7.562;2023-08-12T01:41:52;22.00;;;16.30;;
31760;SDS011;18335;51.486;7.562;2023-08-12T01:44:21;23.30;;;17.60;;
31760;SDS011;18335;51.486;7.562;2023-08-12T01:46:49;22.98;;;17.48;;
31760;SDS011;18335;51.486;7.562;2023-08-12T01:49:17;21.48;;;17.02;;
31760;SDS011;18335;51.486;7.562;2023-08-12T01:51:44;22.52;;;17.63;;
31760;SDS011;18335;51.486;7.562;2023-08-12T01:54:11;20.13;;;16.27;;
31760;SDS011;18335;51.486;7.562;2023-08-12T01:56:39;21.38;;;15.98;;
31760;SDS011;18335;51.486;7.562;2023-08-12T01:59:05;24.05;;;17.83;;
31760;SDS011;18335;51.486;7.562;2023-08-12T02:01:32;21.27;;;16.42;;
31760;SDS011;18335;51.486;7.562;2023-08-12T02:03:59;23.17;;;17.40;;
31760;SDS011;18335;51.486;7.562;2023-08-12T02:06:26;23.33;;;18.48;;
31760;SDS011;18335;51.486;7.562;2023-08-12T02:08:52;23.38;;;18.25;;
31760;SDS011;18335;51.486;7.562;2023-08-12T02:11:19;24.60;;;17.55;;
31760;SDS011;18335;51.486;7.562;2023-08-12T02:13:47;26.38;;;20.65;;
31760;SDS011;18335;51.486;7.562;2023-08-12T02:16:14;27.60;;;21.35;;
31760;SDS011;18335;51.486;7.562;2023-08-12T02:18:42;23.83;;;17.60;;
31760;SDS011;18335;51.486;7.562;2023-08-12T02:21:08;25.05;;;19.90;;
31760;SDS011;18335;51.486;7.562;2023-08-12T02:23:35;22.63;;;17.38;;
31760;SDS011;18335;51.486;7.562;2023-08-12T02:26:02;23.35;;;18.58;;
31760;SDS011;18335;51.486;7.562;2023-08-12T02:28:29;24.00;;;18.38;;
31760;SDS011;18335;51.486;7.562;2023-08-12T02:30:57;23.85;;;18.35;;
31760;SDS011;18335;51.486;7.562;2023-08-12T02:33:24;22.73;;;17.63;;
31760;SDS011;18335;51.486;7.562;2023-08-12T02:35:52;22.65;;;17.77;;
31760;SDS011;18335;51.486;7.562;2023-08-12T02:38:19;23.23;;;17.55;;
31760;SDS011;18335;51.486;7.562;2023-08-12T02:40:47;24.88;;;19.90;;
31760;SDS011;18335;51.486;7.562;2023-08-12T02:43:15;25.88;;;20.00;;
31760;SDS011;18335;51.486;7.562;2023-08-12T02:45:42;26.48;;;18.40;;
31760;SDS011;18335;51.486;7.562;2023-08-12T02:48:11;26.20;;;19.30;;
31760;SDS011;18335;51.486;7.562;2023-08-12T02:50:37;22.15;;;17.80;;
31760;SDS011;18335;51.486;7.562;2023-08-12T02:53:04;26.80;;;17.98;;
31760;SDS011;18335;51.486;7.562;2023-08-12T02:55:32;22.25;;;17.42;;
31760;SDS011;18335;51.486;7.562;2023-08-12T02:57:59;23.13;;;17.30;;
31760;SDS011;18335;51.486;7.562;2023-08-12T03:00:26;22.63;;;17.95;;
31760;SDS011;18335;51.486;7.562;2023-08-12T03:02:53;22.65;;;16.90;;
31760;SDS011;18335;51.486;7.562;2023-08-12T03:05:21;24.92;;;18.30;;
31760;SDS011;18335;51.486;7.562;2023-08-12T03:07:48;23.35;;;17.95;;
31760;SDS011;18335;51.486;7.562;2023-08-12T03:10:17;20.05;;;15.90;;
31760;SDS011;18335;51.486;7.562;2023-08-12T03:12:44;25.65;;;17.27;;
31760;SDS011;18335;51.486;7.562;2023-08-12T03:15:11;23.98;;;16.48;;
31760;SDS011;18335;51.486;7.562;2023-08-12T03:17:38;20.85;;;16.95;;
31760;SDS011;18335;51.486;7.562;2023-08-12T03:20:06;22.23;;;15.15;;
31760;SDS011;18335;51.486;7.562;2023-08-12T03:22:37;21.98;;;14.82;;
31760;SDS011;18335;51.486;7.562;2023-08-12T03:25:05;22.00;;;16.20;;
31760;SDS011;18335;51.486;7.562;2023-08-12T03:27:32;18.95;;;14.55;;
31760;SDS011;18335;51.486;7.562;2023-08-12T03:29:59;19.42;;;13.45;;
31760;SDS011;18335;51.486;7.562;2023-08-12T03:32:25;18.33;;;13.80;;
31760;SDS011;18335;51.486;7.562;2023-08-12T03:34:53;19.35;;;13.10;;
31760;SDS011;18335;51.486;7.562;2023-08-12T03:37:20;18.00;;;13.73;;
31760;SDS011;18335;51.486;7.562;2023-08-12T03:39:52;17.50;;;13.77;;
31760;SDS011;18335;51.486;7.562;2023-08-12T03:42:19;18.33;;;12.48;;
31760;SDS011;18335;51.486;7.562;2023-08-12T03:44:47;18.48;;;13.07;;
31760;SDS011;18335;51.486;7.562;2023-08-12T03:47:13;19.67;;;13.60;;
31760;SDS011;18335;51.486;7.562;2023-08-12T03:49:40;16.95;;;11.35;;
31760;SDS011;18335;51.486;7.562;2023-08-12T03:52:07;19.13;;;12.20;;
31760;SDS011;18335;51.486;7.562;2023-08-12T03:54:34;17.23;;;12.02;;
31760;SDS011;18335;51.486;7.562;2023-08-12T03:57:02;16.10;;;11.52;;
31760;SDS011;18335;51.486;7.562;2023-08-12T03:59:28;16.23;;;12.45;;
31760;SDS011;18335;51.486;7.562;2023-08-12T04:01:56;15.98;;;11.85;;
31760;SDS011;18335;51.486;7.562;2023-08-12T04:04:23;15.85;;;11.27;;
31760;SDS011;18335;51.486;7.562;2023-08-12T04:06:50;15.40;;;11.85;;
31760;SDS011;18335;51.486;7.562;2023-08-12T04:09:18;14.52;;;11.25;;
31760;SDS011;18335;51.486;7.562;2023-08-12T04:11:45;16.35;;;11.02;;
31760;SDS011;18335;51.486;7.562;2023-08-12T04:14:14;17.90;;;12.13;;
31760;SDS011;18335;51.486;7.562;2023-08-12T04:16:42;16.90;;;12.45;;
31760;SDS011;18335;51.486;7.562;2023-08-12T04:19:09;15.02;;;12.10;;
31760;SDS011;18335;51.486;7.562;2023-08-12T04:21:36;15.57;;;12.05;;
31760;SDS011;18335;51.486;7.562;2023-08-12T04:24:02;15.98;;;11.15;;
31760;SDS011;18335;51.486;7.562;2023-08-12T04:26:30;16.70;;;12.05;;
31760;SDS011;18335;51.486;7.562;2023-08-12T04:28:58;16.80;;;11.45;;
31760;SDS011;18335;51.486;7.562;2023-08-12T04:31:27;15.82;;;11.98;;
31760;SDS011;18335;51.486;7.562;2023-08-12T04:33:55;18.08;;;11.63;;
31760;SDS011;18335;51.486;7.562;2023-08-12T04:36:25;14.45;;;10.50;;
31760;SDS011;18335;51.486;7.562;2023-08-12T04:38:52;16.73;;;11.00;;
31760;SDS011;18335;51.486;7.562;2023-08-12T04:41:19;14.43;;;10.85;;
31760;SDS011;18335;51.486;7.562;2023-08-12T04:43:45;14.00;;;10.50;;
31760;SDS011;18335;51.486;7.562;2023-08-12T04:46:13;12.32;;;9.35;;
31760;SDS011;18335;51.486;7.562;2023-08-12T04:48:41;13.25;;;10.40;;
31760;SDS011;18335;51.486;7.562;2023-08-12T04:51:07;15.68;;;10.90;;
31760;SDS011;18335;51.486;7.562;2023-08-12T04:53:35;12.75;;;9.95;;
31760;SDS011;18335;51.486;7.562;2023-08-12T04:56:02;13.75;;;10.18;;
31760;SDS011;18335;51.486;7.562;2023-08-12T04:58:30;13.48;;;10.55;;
31760;SDS011;18335;51.486;7.562;2023-08-12T05:00:57;14.02;;;9.80;;
31760;SDS011;18335;51.486;7.562;2023-08-12T05:03:24;13.05;;;9.60;;
31760;SDS011;18335;51.486;7.562;2023-08-12T05:05:53;13.70;;;9.88;;
31760;SDS011;18335;51.486;7.562;2023-08-12T05:08:24;14.55;;;10.63;;
31760;SDS011;18335;51.486;7.562;2023-08-12T05:10:51;12.85;;;9.40;;
31760;SDS011;18335;51.486;7.562;2023-08-12T05:13:19;14.60;;;8.73;;
31760;SDS011;18335;51.486;7.562;2023-08-12T05:15:45;11.88;;;8.65;;
31760;SDS011;18335;51.486;7.562;2023-08-12T05:18:14;14.82;;;9.13;;
31760;SDS011;18335;51.486;7.562;2023-08-12T05:20:41;11.38;;;8.35;;
31760;SDS011;18335;51.486;7.562;2023-08-12T05:23:10;10.50;;;7.57;;
31760;SDS011;18335;51.486;7.562;2023-08-12T05:25:38;13.60;;;7.32;;
31760;SDS011;18335;51.486;7.562;2023-08-12T05:28:06;11.70;;;6.78;;
31760;SDS011;18335;51.486;7.562;2023-08-12T05:30:32;11.45;;;6.75;;
31760;SDS011;18335;51.486;7.562;2023-08-12T05:33:00;11.45;;;6.45;;
31760;SDS011;18335;51.486;7.562;2023-08-12T05:35:27;10.25;;;6.53;;
31760;SDS011;18335;51.486;7.562;2023-08-12T05:37:54;11.38;;;6.32;;
31760;SDS011;18335;51.486;7.562;2023-08-12T05:40:22;9.50;;;6.50;;
31760;SDS011;18335;51.486;7.562;2023-08-12T05:42:49;11.55;;;6.97;;
31760;SDS011;18335;51.486;7.562;2023-08-12T05:45:15;12.50;;;7.65;;
31760;SDS011;18335;51.486;7.562;2023-08-12T05:47:42;12.93;;;7.82;;
31760;SDS011;18335;51.486;7.562;2023-08-12T05:50:09;11.10;;;7.35;;
31760;SDS011;18335;51.486;7.562;2023-08-12T05:52:36;14.07;;;7.18;;
31760;SDS011;18335;51.486;7.562;2023-08-12T05:55:03;10.65;;;7.47;;
31760;SDS011;18335;51.486;7.562;2023-08-12T05:57:32;11.30;;;6.60;;
31760;SDS011;18335;51.486;7.562;2023-08-12T05:59:59;10.02;;;6.57;;
31760;SDS011;18335;51.486;7.562;2023-08-12T06:02:25;10.80;;;7.07;;
31760;SDS011;18335;51.486;7.562;2023-08-12T06:04:52;10.20;;;6.18;;
31760;SDS011;18335;51.486;7.562;2023-08-12T06:07:19;8.35;;;5.00;;
31760;SDS011;18335;51.486;7.562;2023-08-12T06:09:46;15.45;;;5.90;;
31760;SDS011;18335;51.486;7.562;2023-08-12T06:12:13;9.45;;;4.47;;
31760;SDS011;18335;51.486;7.562;2023-08-12T06:14:41;8.15;;;4.22;;
31760;SDS011;18335;51.486;7.562;2023-08-12T06:17:08;10.75;;;4.72;;
31760;SDS011;18335;51.486;7.562;2023-08-12T06:19:34;7.97;;;4.63;;
31760;SDS011;18335;51.486;7.562;2023-08-12T06:22:01;9.57;;;5.07;;
31760;SDS011;18335;51.486;7.562;2023-08-12T06:24:28;8.85;;;4.65;;
31760;SDS011;18335;51.486;7.562;2023-08-12T06:26:55;12.45;;;4.43;;
31760;SDS011;18335;51.486;7.562;2023-08-12T06:29:21;8.57;;;4.60;;
31760;SDS011;18335;51.486;7.562;2023-08-12T06:31:50;7.88;;;4.55;;
31760;SDS011;18335;51.486;7.562;2023-08-12T06:34:16;8.98;;;4.93;;
31760;SDS011;18335;51.486;7.562;2023-08-12T06:36:43;9.27;;;4.38;;
31760;SDS011;18335;51.486;7.562;2023-08-12T06:39:10;8.90;;;4.18;;
31760;SDS011;18335;51.486;7.562;2023-08-12T06:41:36;7.60;;;3.78;;
31760;SDS011;18335;51.486;7.562;2023-08-12T06:44:04;8.70;;;4.53;;
31760;SDS011;18335;51.486;7.562;2023-08-12T06:46:31;8.52;;;3.80;;
31760;SDS011;18335;51.486;7.562;2023-08-12T06:48:59;7.60;;;4.00;;
31760;SDS011;18335;51.486;7.562;2023-08-12T06:51:26;10.07;;;4.88;;
31760;SDS011;18335;51.486;7.562;2023-08-12T06:53:52;11.95;;;4.40;;
31760;SDS011;18335;51.486;7.562;2023-08-12T06:56:19;7.93;;;4.00;;
31760;SDS011;18335;51.486;7.562;2023-08-12T06:58:46;7.45;;;4.13;;
31760;SDS011;18335;51.486;7.562;2023-08-12T07:01:13;12.13;;;3.92;;
31760;SDS011;18335;51.486;7.562;2023-08-12T07:03:40;9.88;;;4.00;;
31760;SDS011;18335;51.486;7.562;2023-08-12T07:06:08;9.80;;;4.32;;
31760;SDS011;18335;51.486;7.562;2023-08-12T07:08:34;9.38;;;4.35;;
31760;SDS011;18335;51.486;7.562;2023-08-12T07:11:01;7.28;;;4.07;;
31760;SDS011;18335;51.486;7.562;2023-08-12T07:13:28;6.72;;;4.20;;
31760;SDS011;18335;51.486;7.562;2023-08-12T07:15:55;6.97;;;3.40;;
31760;SDS011;18335;51.486;7.562;2023-08-12T07:18:22;7.32;;;4.15;;
31760;SDS011;18335;51.486;7.562;2023-08-12T07:20:49;7.22;;;3.47;;
31760;SDS011;18335;51.486;7.562;2023-08-12T07:23:17;8.25;;;3.72;;
31760;SDS011;18335;51.486;7.562;2023-08-12T07:25:45;8.23;;;3.92;;
31760;SDS011;18335;51.486;7.562;2023-08-12T07:28:12;8.52;;;4.25;;
31760;SDS011;18335;51.486;7.562;2023-08-12T07:30:39;9.98;;;4.03;;
31760;SDS011;18335;51.486;7.562;2023-08-12T07:33:05;7.07;;;3.75;;
31760;SDS011;18335;51.486;7.562;2023-08-12T07:35:33;7.32;;;3.72;;
31760;SDS011;18335;51.486;7.562;2023-08-12T07:38:00;7.07;;;3.50;;
31760;SDS011;18335;51.486;7.562;2023-08-12T07:40:28;7.82;;;4.22;;
31760;SDS011;18335;51.486;7.562;2023-08-12T07:42:55;9.32;;;4.35;;
31760;SDS011;18335;51.486;7.562;2023-08-12T07:45:21;8.07;;;3.92;;
31760;SDS011;18335;51.486;7.562;2023-08-12T07:47:48;7.15;;;3.13;;
31760;SDS011;18335;51.486;7.562;2023-08-12T07:50:15;8.02;;;3.25;;
31760;SDS011;18335;51.486;7.562;2023-08-12T07:52:42;7.30;;;3.40;;
31760;SDS011;18335;51.486;7.562;2023-08-12T07:55:09;8.32;;;3.70;;
31760;SDS011;18335;51.486;7.562;2023-08-12T07:57:38;7.18;;;3.05;;
31760;SDS011;18335;51.486;7.562;2023-08-12T08:00:06;5.55;;;3.00;;
31760;SDS011;18335;51.486;7.562;2023-08-12T08:02:35;6.57;;;3.30;;
31760;SDS011;18335;51.486;7.562;2023-08-12T08:05:02;6.70;;;3.40;;
31760;SDS011;18335;51.486;7.562;2023-08-12T08:07:29;7.55;;;3.13;;
31760;SDS011;18335;51.486;7.562;2023-08-12T08:09:56;5.28;;;2.78;;
31760;SDS011;18335;51.486;7.562;2023-08-12T08:12:23;5.57;;;2.95;;
31760;SDS011;18335;51.486;7.562;2023-08-12T08:14:51;4.07;;;2.60;;
31760;SDS011;18335;51.486;7.562;2023-08-12T08:17:18;6.97;;;3.30;;
31760;SDS011;18335;51.486;7.562;2023-08-12T08:19:45;5.00;;;2.75;;
31760;SDS011;18335;51.486;7.562;2023-08-12T08:22:11;6.20;;;2.50;;
31760;SDS011;18335;51.486;7.562;2023-08-12T08:24:38;8.43;;;2.78;;
31760;SDS011;18335;51.486;7.562;2023-08-12T08:27:05;6.20;;;2.80;;
31760;SDS011;18335;51.486;7.562;2023-08-12T08:29:32;4.53;;;2.58;;
31760;SDS011;18335;51.486;7.562;2023-08-12T08:32:00;4.05;;;2.08;;
31760;SDS011;18335;51.486;7.562;2023-08-12T08:34:27;5.82;;;2.50;;
31760;SDS011;18335;51.486;7.562;2023-08-12T08:36:54;4.70;;;2.70;;
31760;SDS011;18335;51.486;7.562;2023-08-12T08:39:20;4.05;;;2.35;;
31760;SDS011;18335;51.486;7.562;2023-08-12T08:41:48;7.35;;;2.70;;
31760;SDS011;18335;51.486;7.562;2023-08-12T08:44:15;7.40;;;2.78;;
31760;SDS011;18335;51.486;7.562;2023-08-12T08:46:43;4.68;;;2.03;;
31760;SDS011;18335;51.486;7.562;2023-08-12T08:49:13;4.30;;;2.13;;
31760;SDS011;18335;51.486;7.562;2023-08-12T08:51:41;4.68;;;2.05;;
31760;SDS011;18335;51.486;7.562;2023-08-12T08:54:09;5.68;;;2.10;;
31760;SDS011;18335;51.486;7.562;2023-08-12T08:56:37;3.78;;;2.17;;
31760;SDS011;18335;51.486;7.562;2023-08-12T08:59:04;4.88;;;2.35;;
31760;SDS011;18335;51.486;7.562;2023-08-12T09:01:31;6.00;;;2.30;;
31760;SDS011;18335;51.486;7.562;2023-08-12T09:03:58;5.60;;;2.45;;
31760;SDS011;18335;51.486;7.562;2023-08-12T09:06:28;4.70;;;2.47;;
31760;SDS011;18335;51.486;7.562;2023-08-12T09:08:55;4.20;;;2.30;;
31760;SDS011;18335;51.486;7.562;2023-08-12T09:11:22;6.20;;;2.28;;
31760;SDS011;18335;51.486;7.562;2023-08-12T09:13:50;5.20;;;2.25;;
31760;SDS011;18335;51.486;7.562;2023-08-12T09:16:16;3.90;;;2.10;;
31760;SDS011;18335;51.486;7.562;2023-08-12T09:18:43;3.90;;;2.35;;
31760;SDS011;18335;51.486;7.562;2023-08-12T09:21:11;4.43;;;2.42;;
31760;SDS011;18335;51.486;7.562;2023-08-12T09:23:40;5.28;;;3.03;;
31760;SDS011;18335;51.486;7.562;2023-08-12T09:26:12;6.05;;;1.90;;
31760;SDS011;18335;51.486;7.562;2023-08-12T09:28:41;6.28;;;2.10;;
31760;SDS011;18335;51.486;7.562;2023-08-12T09:31:08;4.13;;;2.30;;
31760;SDS011;18335;51.486;7.562;2023-08-12T09:33:39;5.18;;;2.28;;
31760;SDS011;18335;51.486;7.562;2023-08-12T09:36:06;5.57;;;1.67;;
31760;SDS011;18335;51.486;7.562;2023-08-12T09:38:33;4.97;;;2.03;;
31760;SDS011;18335;51.486;7.562;2023-08-12T09:41:02;7.68;;;2.45;;
31760;SDS011;18335;51.486;7.562;2023-08-12T09:43:29;5.03;;;1.80;;
31760;SDS011;18335;51.486;7.562;2023-08-12T09:45:56;4.15;;;1.60;;
31760;SDS011;18335;51.486;7.562;2023-08-12T09:48:24;4.15;;;1.58;;
31760;SDS011;18335;51.486;7.562;2023-08-12T09:50:51;3.65;;;1.45;;
31760;SDS011;18335;51.486;7.562;2023-08-12T09:53:19;2.15;;;1.38;;
31760;SDS011;18335;51.486;7.562;2023-08-12T09:55:46;4.43;;;2.08;;
31760;SDS011;18335;51.486;7.562;2023-08-12T09:58:17;6.35;;;1.75;;
31760;SDS011;18335;51.486;7.562;2023-08-12T10:00:45;3.47;;;1.90;;
31760;SDS011;18335;51.486;7.562;2023-08-12T10:03:13;4.15;;;1.75;;
31760;SDS011;18335;51.486;7.562;2023-08-12T10:05:41;5.13;;;1.63;;
31760;SDS011;18335;51.486;7.562;2023-08-12T10:08:08;4.10;;;1.35;;
31760;SDS011;18335;51.486;7.562;2023-08-12T10:10:36;5.20;;;1.92;;
31760;SDS011;18335;51.486;7.562;2023-08-12T10:13:03;4.80;;;1.58;;
31760;SDS011;18335;51.486;7.562;2023-08-12T10:15:34;4.57;;;1.50;;
31760;SDS011;18335;51.486;7.562;2023-08-12T10:18:02;2.22;;;1.50;;
31760;SDS011;18335;51.486;7.562;2023-08-12T10:20:30;2.92;;;1.67;;
31760;SDS011;18335;51.486;7.562;2023-08-12T10:22:58;2.88;;;1.65;;
31760;SDS011;18335;51.486;7.562;2023-08-12T10:25:26;3.08;;;1.42;;
31760;SDS011;18335;51.486;7.562;2023-08-12T10:27:58;4.25;;;1.75;;
31760;SDS011;18335;51.486;7.562;2023-08-12T10:30:27;3.80;;;1.80;;
31760;SDS011;18335;51.486;7.562;2023-08-12T10:32:56;3.50;;;1.45;;
31760;SDS011;18335;51.486;7.562;2023-08-12T10:35:30;2.13;;;1.15;;
31760;SDS011;18335;51.486;7.562;2023-08-12T10:38:07;3.83;;;1.63;;
31760;SDS011;18335;51.486;7.562;2023-08-12T10:40:34;2.97;;;1.40;;
31760;SDS011;18335;51.486;7.562;2023-08-12T10:43:01;2.60;;;1.25;;
31760;SDS011;18335;51.486;7.562;2023-08-12T10:45:40;2.20;;;0.90;;
31760;SDS011;18335;51.486;7.562;2023-08-12T10:50:55;2.90;;;1.58;;
31760;SDS011;18335;51.486;7.562;2023-08-12T10:53:23;3.42;;;1.33;;
31760;SDS011;18335;51.486;7.562;2023-08-12T10:55:55;3.22;;;1.27;;
31760;SDS011;18335;51.486;7.562;2023-08-12T10:58:26;2.00;;;1.10;;
31760;SDS011;18335;51.486;7.562;2023-08-12T11:00:54;2.58;;;1.23;;
31760;SDS011;18335;51.486;7.562;2023-08-12T11:03:21;2.75;;;1.38;;
31760;SDS011;18335;51.486;7.562;2023-08-12T11:05:49;2.95;;;1.50;;
31760;SDS011;18335;51.486;7.562;2023-08-12T11:08:23;2.35;;;1.50;;
31760;SDS011;18335;51.486;7.562;2023-08-12T11:10:53;1.75;;;1.23;;
31760;SDS011;18335;51.486;7.562;2023-08-12T11:13:22;3.42;;;1.55;;
31760;SDS011;18335;51.486;7.562;2023-08-12T11:15:49;2.35;;;1.15;;
31760;SDS011;18335;51.486;7.562;2023-08-12T11:18:17;3.45;;;1.42;;
31760;SDS011;18335;51.486;7.562;2023-08-12T11:20:46;6.05;;;1.75;;
31760;SDS011;18335;51.486;7.562;2023-08-12T11:23:16;2.60;;;1.10;;
31760;SDS011;18335;51.486;7.562;2023-08-12T11:25:46;3.80;;;1.70;;
31760;SDS011;18335;51.486;7.562;2023-08-12T11:28:17;4.78;;;1.73;;
31760;SDS011;18335;51.486;7.562;2023-08-12T11:30:45;5.78;;;1.50;;
31760;SDS011;18335;51.486;7.562;2023-08-12T11:33:12;3.45;;;1.40;;
31760;SDS011;18335;51.486;7.562;2023-08-12T11:35:38;4.05;;;1.80;;
31760;SDS011;18335;51.486;7.562;2023-08-12T11:38:06;4.03;;;1.35;;
31760;SDS011;18335;51.486;7.562;2023-08-12T11:40:35;6.65;;;1.50;;
31760;SDS011;18335;51.486;7.562;2023-08-12T11:43:02;3.42;;;1.60;;
31760;SDS011;18335;51.486;7.562;2023-08-12T11:45:30;5.68;;;1.50;;
31760;SDS011;18335;51.486;7.562;2023-08-12T11:47:56;3.17;;;1.50;;
31760;SDS011;18335;51.486;7.562;2023-08-12T11:50:24;7.28;;;1.80;;
31760;SDS011;18335;51.486;7.562;2023-08-12T11:52:52;5.15;;;1.90;;
31760;SDS011;18335;51.486;7.562;2023-08-12T11:55:20;5.57;;;1.90;;
31760;SDS011;18335;51.486;7.562;2023-08-12T11:57:49;5.30;;;2.15;;
31760;SDS011;18335;51.486;7.562;2023-08-12T12:00:16;5.07;;;2.30;;
31760;SDS011;18335;51.486;7.562;2023-08-12T12:02:48;4.13;;;2.35;;
31760;SDS011;18335;51.486;7.562;2023-08-12T12:05:16;4.93;;;2.22;;
31760;SDS011;18335;51.486;7.562;2023-08-12T12:07:44;4.28;;;2.50;;
31760;SDS011;18335;51.486;7.562;2023-08-12T12:10:12;8.68;;;2.88;;
31760;SDS011;18335;51.486;7.562;2023-08-12T12:12:40;9.30;;;3.05;;
31760;SDS011;18335;51.486;7.562;2023-08-12T12:15:09;10.25;;;3.45;;
31760;SDS011;18335;51.486;7.562;2023-08-12T12:17:38;9.57;;;4.10;;
31760;SDS011;18335;51.486;7.562;2023-08-12T12:20:06;6.60;;;3.08;;
31760;SDS011;18335;51.486;7.562;2023-08-12T12:22:35;8.38;;;3.50;;
31760;SDS011;18335;51.486;7.562;2023-08-12T12:25:06;7.85;;;3.50;;
31760;SDS011;18335;51.486;7.562;2023-08-12T12:27:34;5.25;;;2.88;;
31760;SDS011;18335;51.486;7.562;2023-08-12T12:30:01;5.55;;;3.00;;
31760;SDS011;18335;51.486;7.562;2023-08-12T12:32:31;6.78;;;2.50;;
31760;SDS011;18335;51.486;7.562;2023-08-12T12:34:57;5.45;;;2.95;;
31760;SDS011;18335;51.486;7.562;2023-08-12T12:37:24;5.57;;;1.80;;
31760;SDS011;18335;51.486;7.562;2023-08-12T12:39:51;5.22;;;2.17;;
31760;SDS011;18335;51.486;7.562;2023-08-12T12:42:18;6.00;;;2.40;;
31760;SDS011;18335;51.486;7.562;2023-08-12T12:44:44;3.42;;;1.60;;
31760;SDS011;18335;51.486;7.562;2023-08-12T12:47:11;3.85;;;1.60;;
31760;SDS011;18335;51.486;7.562;2023-08-12T12:49:39;2.85;;;1.60;;
31760;SDS011;18335;51.486;7.562;2023-08-12T12:52:06;3.85;;;1.45;;
31760;SDS011;18335;51.486;7.562;2023-08-12T12:54:33;3.00;;;1.50;;
31760;SDS011;18335;51.486;7.562;2023-08-12T12:57:00;3.05;;;1.25;;
31760;SDS011;18335;51.486;7.562;2023-08-12T12:59:27;2.38;;;1.50;;
31760;SDS011;18335;51.486;7.562;2023-08-12T13:01:54;3.03;;;1.48;;
31760;SDS011;18335;51.486;7.562;2023-08-12T13:04:20;3.08;;;0.90;;
31760;SDS011;18335;51.486;7.562;2023-08-12T13:06:49;3.03;;;1.23;;
31760;SDS011;18335;51.486;7.562;2023-08-12T13:09:15;1.15;;;0.82;;
31760;SDS011;18335;51.486;7.562;2023-08-12T13:11:42;5.97;;;2.17;;
31760;SDS011;18335;51.486;7.562;2023-08-12T13:14:09;1.45;;;0.75;;
31760;SDS011;18335;51.486;7.562;2023-08-12T13:16:36;3.00;;;1.00;;
31760;SDS011;18335;51.486;7.562;2023-08-12T13:19:03;2.05;;;1.10;;
31760;SDS011;18335;51.486;7.562;2023-08-12T13:21:29;4.20;;;1.20;;
31760;SDS011;18335;51.486;7.562;2023-08-12T13:23:59;2.90;;;1.25;;
31760;SDS011;18335;51.486;7.562;2023-08-12T13:26:26;2.10;;;1.00;;
31760;SDS011;18335;51.486;7.562;2023-08-12T13:28:53;3.53;;;1.00;;
31760;SDS011;18335;51.486;7.562;2023-08-12T13:31:20;2.65;;;1.20;;
31760;SDS011;18335;51.486;7.562;2023-08-12T13:33:47;3.45;;;1.15;;
31760;SDS011;18335;51.486;7.562;2023-08-12T13:36:14;2.72;;;1.10;;
31760;SDS011;18335;51.486;7.562;2023-08-12T13:38:40;5.95;;;1.30;;
31760;SDS011;18335;51.486;7.562;2023-08-12T13:41:08;4.20;;;1.13;;
31760;SDS011;18335;51.486;7.562;2023-08-12T13:43:35;2.00;;;1.10;;
31760;SDS011;18335;51.486;7.562;2023-08-12T13:46:02;3.10;;;1.13;;
31760;SDS011;18335;51.486;7.562;2023-08-12T13:48:29;4.72;;;1.33;;
31760;SDS011;18335;51.486;7.562;2023-08-12T13:50:56;2.78;;;1.13;;
31760;SDS011;18335;51.486;7.562;2023-08-12T13:53:23;1.83;;;0.93;;
31760;SDS011;18335;51.486;7.562;2023-08-12T13:55:50;2.78;;;1.35;;
31760;SDS011;18335;51.486;7.562;2023-08-12T13:58:18;4.57;;;1.65;;
31760;SDS011;18335;51.486;7.562;2023-08-12T14:00:45;6.25;;;2.08;;
31760;SDS011;18335;51.486;7.562;2023-08-12T14:03:12;2.83;;;1.50;;
31760;SDS011;18335;51.486;7.562;2023-08-12T14:05:39;5.00;;;2.33;;
31760;SDS011;18335;51.486;7.562;2023-08-12T14:08:06;3.58;;;1.80;;
31760;SDS011;18335;51.486;7.562;2023-08-12T14:10:33;4.25;;;1.95;;
31760;SDS011;18335;51.486;7.562;2023-08-12T14:12:59;4.65;;;2.58;;
31760;SDS011;18335;51.486;7.562;2023-08-12T14:15:28;4.90;;;2.58;;
31760;SDS011;18335;51.486;7.562;2023-08-12T14:17:54;3.53;;;2.30;;
31760;SDS011;18335;51.486;7.562;2023-08-12T14:20:21;3.35;;;2.33;;
31760;SDS011;18335;51.486;7.562;2023-08-12T14:22:48;3.85;;;2.08;;
31760;SDS011;18335;51.486;7.562;2023-08-12T14:25:15;5.43;;;2.60;;
31760;SDS011;18335;51.486;7.562;2023-08-12T14:27:42;3.35;;;2.30;;
31760;SDS011;18335;51.486;7.562;2023-08-12T14:30:09;5.05;;;2.60;;
31760;SDS011;18335;51.486;7.562;2023-08-12T14:32:38;3.78;;;2.40;;
31760;SDS011;18335;51.486;7.562;2023-08-12T14:35:05;5.53;;;2.70;;
31760;SDS011;18335;51.486;7.562;2023-08-12T14:37:33;6.25;;;3.25;;
31760;SDS011;18335;51.486;7.562;2023-08-12T14:40:00;5.63;;;3.30;;
31760;SDS011;18335;51.486;7.562;2023-08-12T14:42:28;5.22;;;3.22;;